OEDFOBBI

Guest
Details From OEDF - KING FAHD INTL
To OBBI - BAHRAIN INTL
Flight Number -
Tags generated
Created
Modified
Stats Distance 48 nm / 89 km
Max Altitude 100 ft / 30 m
Waypoints 3
Social Downloads 0
Likes 0
Share VATSIM

Download

Looking for another format? Having issues loading an existing format? Contact us
Advertisement - Login to hide

Notes

Basic altitude profile: - Ascent Rate: 2500ft/min - Ascent Speed: 250kts - Cruise Altitude: 5000ft - Cruise Speed: 250kts - Descent Rate: 1500ft/min - Descent Speed: 180kts Options: - Use NATs: yes - Use PACOTS: yes - Use low airways: yes - Use high airways: yes

Route

OEDF BAH OBBI

ID Type Via Altitude Latitude Longitude Leg Dist Tot Dist Heading (true) Name
O OEDF APT - 0 ft / 0 m 26.47120˚ 49.79790˚ - 0 nm - KING FAHD INTL
BAH VOR - 100 ft / 30 m 26.26419˚ 50.64885˚ 47 nm 47 nm 105° / 105° BAHRAIN VOR-DME
O OBBI APT - 0 ft / 0 m 26.26784˚ 50.63710˚ 0 nm 48 nm 289° / 289° BAHRAIN INTL

Altitude Profile

Advertisement - Login to hide

OEDF

Details ICAO OEDF (DMM)
Name KING FAHD INTL
Region Saudi Arabia
Timezone Asia/Riyadh (UTC+3.0)
Stats Elevation 72 ft / 22 m (AMSL)
Location 26.471197° 49.797900°
Runways 2
Magnetic Variation 2.896° E

METAR

OEDF 111500Z 33007KT CAVOK 17/M04 Q1022 NOSIG

Decode

TAF

TAF OEDF 110830Z 1112/1218 31010KT CAVOK BECMG 1203/1205 32008G18KT

Decode

Departure Runways

ID Width Length Bearing (true) Bearing (mag) Surface Threshold Offset Overrun Length
16L 197 ft / 60 m 13,170 ft / 4,014 m 164.55° 161.65° Asphalt 0 ft / 0 m 1,130 ft / 344 m
16R 197 ft / 60 m 13,170 ft / 4,014 m 164.54° 161.64° Asphalt 0 ft / 0 m 1,130 ft / 344 m
34L 197 ft / 60 m 13,170 ft / 4,014 m 344.54° 341.64° Asphalt 0 ft / 0 m 1,130 ft / 344 m
34R 197 ft / 60 m 13,170 ft / 4,014 m 344.55° 341.65° Asphalt 0 ft / 0 m 1,130 ft / 344 m

OBBI

Details ICAO OBBI (BAH)
Name BAHRAIN INTL
Region Bahrain
Timezone Asia/Bahrain (UTC+3.0)
Stats Elevation 6 ft / 2 m (AMSL)
Location 26.267837° 50.637095°
Runways 2
Magnetic Variation 2.762° E

METAR

OBBI 111500Z 30015KT CAVOK 18/10 Q1022 NOSIG

Decode

TAF

TAF OBBI 111100Z 1112/1218 31016KT CAVOK BECMG 1203/1206 32017G27KT= TAF OKBK 111045Z 1112/1218 33008G18KT 7000 SKC

Decode

Destination Runways

ID Width Length Bearing (true) Bearing (mag) Surface Threshold Offset Overrun Length
12L 197 ft / 60 m 12,893 ft / 3,930 m 122.74° 119.98° Asphalt 1,000 ft / 305 m 0 ft / 0 m
12R 148 ft / 45 m 8,303 ft / 2,531 m 122.76° 120.00° Asphalt 1,000 ft / 305 m 0 ft / 0 m
30L 148 ft / 45 m 8,303 ft / 2,531 m 302.77° 300.01° Asphalt 395 ft / 120 m 0 ft / 0 m
30R 197 ft / 60 m 12,893 ft / 3,930 m 302.75° 299.99° Asphalt 1,000 ft / 305 m 0 ft / 0 m

Approach Navaids

Runway Type Ident Frequency Range Bearing (true) Bearing (mag) Slope Elevation
12L Localiser IBIB 111.50 MHz 18 nm / 33 km 122.74° 119.98° - 6 ft / 2 m (AMSL)
12L Glidescope IBIB 111.50 MHz 10 nm / 19 km 122.75° 119.98° 3.00° 6 ft / 2 m (AMSL)
12L DME IBIB 111.50 MHz 18 nm / 33 km - - - 42 ft / 13 m (AMSL)
30R Localiser IBIA 110.30 MHz 18 nm / 33 km 302.77° 300.01° - 6 ft / 2 m (AMSL)
30R Glidescope IBIA 110.30 MHz 10 nm / 19 km 302.75° 299.98° 3.00° 6 ft / 2 m (AMSL)
30R DME IBIA 110.30 MHz 18 nm / 33 km - - - 42 ft / 13 m (AMSL)

Popular Alternatives